^^
Datos históricos de la estación: Murcia-Puente Tocinos
Diario Informe para Marzo 29, 2019 Unidades:  Ingés    Métrico   Ambas
Diario Semanal Mensual Anual
  Máxima: Mínima: Promedio:
Temperatura: 88 °F 68.7 °F 76.6 °F
Punto de rocio: 70 °F 64.8 °F 66.9 °F
Humedad: 88% 48.6% 74%
Velocidad viento: 7.6mph 0mph 3mph
Racha viento: 15mph - -
Viento- - SSO
Presión: 30.1 in 29.9 in -
Precipitación: 0 in    
 
 
Tabla de datos para Marzo 29, 2019
Hora Temperatura Punto de rocio Presión Viento Velocidad viento Racha viento Humedad Intensidad lluvia(por hora) Nubes
00:04 73 °F 68.2 °F 30.1 in Calm     85% 0 in
00:09 72.9 °F 68.2 °F 30.1 in Calm     85% 0 in
00:14 72.9 °F 68.4 °F 30.1 in Calm     85.9% 0 in
00:19 72.7 °F 68.2 °F 30.1 in Calm     86% 0 in
00:24 72.7 °F 68.2 °F 30.1 in Calm     86% 0 in
00:29 72.7 °F 68.2 °F 30.1 in Calm     86% 0 in
00:34 72.7 °F 68.2 °F 30.1 in Calm     86% 0 in
00:39 72.5 °F 68.2 °F 30.1 in Calm     86% 0 in
00:44 72.3 °F 68 °F 30.1 in Calm     86% 0 in
00:49 72.3 °F 68.2 °F 30.1 in Calm     87% 0 in
00:54 72.3 °F 68.2 °F 30.1 in Calm     87% 0 in
00:59 72.3 °F 68.2 °F 30.1 in Calm     87% 0 in
01:04 72.1 °F 68.2 °F 30.1 in Calm     87% 0 in
01:09 72.1 °F 68.2 °F 30.1 in Calm   2 mph 87% 0 in
01:14 72.1 °F 68.2 °F 30.1 in Calm   2.4 mph 87% 0 in
01:19 72.1 °F 68 °F 30.1 in NNO 0.3 mph 4 mph 87% 0 in
01:24 72 °F 68.2 °F 30.1 in NO 1.4 mph 5 mph 87.7% 0 in
01:29 72 °F 68.2 °F 30.1 in NO 1.5 mph 5 mph 88% 0 in
01:34 72 °F 68.2 °F 30.1 in NO 1.8 mph 2 mph 88% 0 in
01:39 72 °F 68.2 °F 30.1 in NO 1.4 mph 1.2 mph 88% 0 in
01:44 72 °F 68.2 °F 30.1 in Calm   1 mph 88% 0 in
01:49 72 °F 68.2 °F 30.1 in Calm     88% 0 in
01:54 72 °F 68.2 °F 30.1 in Calm   2.4 mph 88% 0 in
01:59 71.8 °F 68 °F 30.1 in NO 0.4 mph 2.9 mph 88% 0 in
02:04 71.8 °F 68 °F 30.1 in NO 1.4 mph 3 mph 87.7% 0 in
02:09 71.6 °F 67.5 °F 30.1 in ONO 1.5 mph 5.2 mph 87% 0 in
02:14 71.4 °F 67.3 °F 30.1 in SE 1.8 mph 5 mph 87% 0 in
02:19 71.4 °F 67.3 °F 30.1 in SE 2.1 mph 5 mph 87% 0 in
02:24 71.4 °F 67.3 °F 30.1 in SE 2.9 mph 5.2 mph 87% 0 in
02:29 71.2 °F 67.3 °F 30.1 in SSE 2.8 mph 5 mph 87% 0 in
02:34 71.2 °F 67.3 °F 30.1 in SSE 2.4 mph 5.2 mph 87% 0 in
02:39 71.2 °F 67.3 °F 30.1 in Sur 2.5 mph 5.2 mph 87% 0 in
02:44 71.2 °F 67.1 °F 30.1 in SSE 3.1 mph 5 mph 86.7% 0 in
02:49 71.2 °F 66.7 °F 30.1 in SSE 3 mph 5 mph 86% 0 in
02:54 71.2 °F 66.7 °F 30.1 in Sur 2.9 mph 5 mph 86% 0 in
02:59 71.2 °F 66.6 °F 30.1 in SO 2.6 mph 4.6 mph 85.4% 0 in
03:04 71.2 °F 66.6 °F 30.1 in SO 1.8 mph 5 mph 85% 0 in
03:09 71.2 °F 66.6 °F 30.1 in OSO 1.9 mph 4 mph 85% 0 in
03:14 71.2 °F 66.6 °F 30.1 in OSO 2 mph 4 mph 85% 0 in
03:19 71.2 °F 66.4 °F 30.1 in SO 2 mph 4.6 mph 85% 0 in
03:24 71.1 °F 66.4 °F 30 in SSO 2 mph 5 mph 85% 0 in
03:29 71.1 °F 66.4 °F 30 in SSO 1.9 mph 2 mph 85% 0 in
03:34 71.1 °F 66.4 °F 30 in SSO 1.4 mph 2.9 mph 85% 0 in
03:39 71.1 °F 66 °F 30 in SSO 1.4 mph 3.6 mph 84.5% 0 in
03:44 70.9 °F 66 °F 30 in SSE 1.4 mph 4.6 mph 85% 0 in
03:49 70.9 °F 66 °F 30 in SSE 1.4 mph 5 mph 85% 0 in
03:54 70.7 °F 66 °F 30 in SSE 1.4 mph   85% 0 in
03:59 70.5 °F 66 °F 30 in SSE 1 mph   85.5% 0 in
04:04 70.5 °F 66 °F 30 in Calm   1.4 mph 86% 0 in
04:09 70.3 °F 66 °F 30 in Calm   2.9 mph 86% 0 in
04:14 70.3 °F 66 °F 30 in Calm   3.6 mph 86% 0 in
04:19 70.2 °F 65.5 °F 30 in SO 0.4 mph 4 mph 85.3% 0 in
04:24 70.2 °F 65.5 °F 30 in SO 1.8 mph 4 mph 85% 0 in
04:29 70.2 °F 65.5 °F 30 in Sur 1.9 mph 4.7 mph 85% 0 in
04:34 70.2 °F 65.5 °F 30 in Sur 2 mph 5 mph 85% 0 in
04:39 70.2 °F 65.5 °F 30 in SSE 2.2 mph 5 mph 85% 0 in
04:44 70.2 °F 65.5 °F 30 in SSE 2.9 mph 5.2 mph 85% 0 in
04:49 70.2 °F 65.5 °F 30 in SSE 2.9 mph 5 mph 85% 0 in
04:54 70.2 °F 65.5 °F 30 in Sur 2.9 mph 5 mph 85% 0 in
04:59 70.2 °F 65.3 °F 30 in Sur 2.9 mph 5 mph 85% 0 in
05:04 70 °F 65.5 °F 30 in SSE 2.9 mph 5 mph 85.4% 0 in
05:09 70 °F 65.7 °F 30 in Sur 2.7 mph 4.6 mph 86% 0 in
05:14 70 °F 65.7 °F 30 in SSO 2 mph 5 mph 86% 0 in
05:19 70 °F 65.7 °F 30 in Sur 2.1 mph 4.6 mph 86% 0 in
05:24 70 °F 65.7 °F 30 in SSO 2.4 mph 5 mph 86% 0 in
05:29 70 °F 65.7 °F 30 in OSO 1.8 mph 3 mph 86% 0 in
05:34 70 °F 65.7 °F 30 in Calm   2.9 mph 86% 0 in
05:39 70 °F 65.7 °F 30 in OSO 0.3 mph 3.5 mph 86% 0 in
05:44 69.8 °F 65.5 °F 30 in OSO 1.4 mph 3 mph 86% 0 in
05:49 69.8 °F 65.3 °F 30 in Oeste 1.4 mph 4 mph 86% 0 in
05:54 69.6 °F 65.1 °F 30 in ONO 1.4 mph 5 mph 86% 0 in
05:59 69.4 °F 64.9 °F 30 in ONO 1.4 mph 3 mph 86% 0 in
06:04 69.3 °F 64.9 °F 30 in ONO 1.4 mph 2.3 mph 86% 0 in
06:09 69.1 °F 64.9 °F 30 in ONO 1.1 mph 3.1 mph 86.7% 0 in
06:14 69.3 °F 65.1 °F 30 in Calm   4.6 mph 87% 0 in
06:19 69.3 °F 65.3 °F 30 in SO 0.6 mph 5 mph 87.1% 0 in
06:24 69.4 °F 65.7 °F 30 in SO 2.4 mph 5 mph 88% 0 in
06:29 69.4 °F 65.8 °F 30 in OSO 2.4 mph 5 mph 88% 0 in
06:34 69.6 °F 65.8 °F 30 in SO 2.4 mph 5 mph 88% 0 in
06:39 69.6 °F 66 °F 30 in Oeste 2.3 mph 5.2 mph 88% 0 in
06:44 69.8 °F 66 °F 30 in OSO 2 mph 5 mph 87.9% 0 in
06:49 69.6 °F 65.7 °F 30 in Oeste 2.2 mph 5 mph 87% 0 in
06:54 69.6 °F 65.7 °F 30 in Oeste 2.9 mph 5 mph 87.4% 0 in
06:59 69.6 °F 65.8 °F 30 in OSO 2.7 mph 5 mph 88% 0 in
07:04 69.4 °F 65.7 °F 30 in OSO 2.4 mph 5 mph 88% 0 in
07:09 69.4 °F 65.7 °F 30 in OSO 2.5 mph 5.2 mph 88% 0 in
07:14 69.4 °F 65.7 °F 30 in OSO 3.1 mph 5.9 mph 88% 0 in
07:19 69.4 °F 65.7 °F 30 in SO 3 mph 6 mph 88% 0 in
07:24 69.4 °F 65.7 °F 30 in OSO 2.9 mph 6 mph 88% 0 in
07:29 69.4 °F 65.5 °F 30 in SO 2.8 mph 5 mph 87.2% 0 in
07:34 69.4 °F 65.3 °F 30 in Sur 2.4 mph 5 mph 87% 0 in
07:39 69.3 °F 65.3 °F 30 in Sur 2.5 mph 5 mph 87% 0 in
07:44 69.3 °F 65.1 °F 30 in Sur 2.9 mph 5.2 mph 87% 0 in
07:49 69.1 °F 64.9 °F 30 in Sur 2.9 mph 5 mph 87% 0 in
07:54 68.9 °F 64.9 °F 30 in Sur 2.9 mph 5 mph 87% 0 in
07:59 68.7 °F 64.8 °F 30 in SSE 2.9 mph 5.2 mph 87% 0 in
08:04 68.7 °F 64.8 °F 30 in Sur 2.9 mph 5 mph 87.3% 0 in
08:09 68.7 °F 64.9 °F 30 in Sur 2.9 mph 5 mph 88% 0 in
08:14 68.7 °F 65.1 °F 30 in Sur 2.9 mph 5 mph 88% 0 in
08:19 68.9 °F 65.1 °F 30 in Sur 2.7 mph 4 mph 88% 0 in
08:24 69.1 °F 65.3 °F 30 in SO 2 mph 4.6 mph 88% 0 in
08:29 69.1 °F 65.5 °F 30 in SO 1.9 mph 5 mph 88% 0 in
08:34 69.3 °F 65.5 °F 30 in SO 1.8 mph 4.6 mph 88% 0 in
08:39 69.3 °F 65.3 °F 30 in Oeste 1.9 mph 5.2 mph 87.4% 0 in
08:44 69.3 °F 65.3 °F 30 in Oeste 2.4 mph 5.9 mph 87% 0 in
08:49 69.3 °F 65.1 °F 30 in OSO 2.5 mph 6 mph 87% 0 in
08:54 69.3 °F 65.1 °F 30 in Oeste 3.1 mph 5 mph 87% 0 in
08:59 69.3 °F 65.1 °F 30 in OSO 3.1 mph 6.2 mph 87% 0 in
09:04 69.3 °F 65.1 °F 30 in SO 3.1 mph 6 mph 87% 0 in
09:09 69.4 °F 65.3 °F 30 in SO 3.2 mph 5.8 mph 87% 0 in
09:14 69.6 °F 65.5 °F 30 in SO 3.6 mph 6 mph 86.7% 0 in
09:19 69.8 °F 65.3 °F 30 in SO 3.3 mph 6 mph 86% 0 in
09:24 70 °F 65.5 °F 30 in SO 2.4 mph 5.4 mph 85.2% 0 in
09:29 70.2 °F 65.5 °F 30 in SO 2.5 mph 5.4 mph 85% 0 in
09:34 70.3 °F 65.3 °F 30 in SO 2.9 mph 6 mph 84.1% 0 in
09:39 70.5 °F 65.3 °F 30 in SO 3 mph 6.9 mph 84% 0 in
09:44 70.5 °F 65.5 °F 30 in SO 3.6 mph 7 mph 83.8% 0 in
09:49 70.9 °F 65.5 °F 30 in OSO 3.6 mph 6 mph 83% 0 in
09:54 71.1 °F 65.5 °F 30 in OSO 3.6 mph 6.2 mph 83% 0 in
09:59 71.1 °F 65.5 °F 30 in OSO 3.6 mph 6.9 mph 82.1% 0 in
10:04 71.2 °F 65.5 °F 30 in SO 3.6 mph 7 mph 82% 0 in
10:09 71.4 °F 65.7 °F 30 in SO 3.5 mph 6.9 mph 82% 0 in
10:14 71.6 °F 65.7 °F 30 in OSO 3.1 mph 8.1 mph 81.2% 0 in
10:19 71.8 °F 66 °F 30 in Oeste 3.3 mph 8 mph 82% 0 in
10:24 72 °F 65.8 °F 30 in OSO 4 mph 8.1 mph 81% 0 in
10:29 72.1 °F 66 °F 30 in SO 4 mph 8.5 mph 80.9% 0 in
10:34 72.5 °F 66 °F 30 in SO 4 mph 9 mph 80% 0 in
10:39 72.7 °F 66 °F 30 in SO 4.1 mph 8.1 mph 79.5% 0 in
10:44 72.9 °F 66 °F 30 in OSO 4.3 mph 8 mph 79.3% 0 in
10:49 73 °F 66.2 °F 30 in Oeste 4.2 mph 10 mph 79% 0 in
10:54 73.4 °F 66 °F 30 in OSO 3.6 mph 10.4 mph 77.9% 0 in
10:59 73.4 °F 65.7 °F 30 in Oeste 3.9 mph 10 mph 77% 0 in
11:04 73.4 °F 66 °F 30 in Oeste 4.7 mph 9 mph 77.8% 0 in
11:09 73.8 °F 66 °F 30 in SSO 4.5 mph 7.4 mph 77% 0 in
11:14 73.8 °F 66 °F 30 in SO 4 mph 7 mph 77% 0 in
11:19 73.9 °F 66.2 °F 30.1 in SO 3.8 mph 7 mph 77% 0 in
11:24 74.1 °F 66.4 °F 30.1 in Sur 3.1 mph 6.9 mph 76.8% 0 in
11:29 74.8 °F 66.4 °F 30.1 in Sur 3.2 mph 8.1 mph 75.3% 0 in
11:34 74.8 °F 66.4 °F 30.1 in Sur 3.6 mph 8 mph 74.6% 0 in
11:39 75.2 °F 66.2 °F 30 in SSO 3.6 mph 8.1 mph 73.9% 0 in
11:44 75.6 °F 66.4 °F 30 in SE 3.6 mph 8 mph 73.6% 0 in
11:49 75.7 °F 66.4 °F 30 in SSE 3.7 mph 10.4 mph 72.5% 0 in
11:54 75.9 °F 66.2 °F 30 in SE 4 mph 10 mph 72.1% 0 in
11:59 76.5 °F 66.6 °F 30 in SSO 3.8 mph 7 mph 71.4% 0 in
12:04 76.5 °F 66.2 °F 30 in Oeste 3.1 mph 7 mph 70.3% 0 in
12:09 76.3 °F 66.2 °F 30 in OSO 3.3 mph 7 mph 71% 0 in
12:14 76.5 °F 66.4 °F 30 in Sur 4 mph 5.8 mph 71.2% 0 in
12:19 76.6 °F 66.4 °F 30 in Oeste 3.8 mph 6.9 mph 70.6% 0 in
12:24 76.8 °F 66.2 °F 30 in Oeste 3.1 mph 7 mph 70% 0 in
12:29 77.2 °F 66.6 °F 30 in SSO 2.9 mph 7 mph 69.8% 0 in
12:34 77.9 °F 66.6 °F 30 in Sur 2.4 mph 5.8 mph 68.4% 0 in
12:39 78.3 °F 66.4 °F 30 in OSO 2.5 mph 7.4 mph 67% 0 in
12:44 78.3 °F 66.4 °F 30 in SSO 3.1 mph 7 mph 67% 0 in
12:49 78.3 °F 66.7 °F 30 in SSO 3 mph 7 mph 67.7% 0 in
12:54 78.6 °F 66.7 °F 30 in SSE 2.9 mph 7 mph 67% 0 in
12:59 79.2 °F 66.9 °F 30 in Sur 2.9 mph 5 mph 66.2% 0 in
13:04 79.7 °F 66.9 °F 30 in NNO 2.9 mph 5.9 mph 65% 0 in
13:09 80.2 °F 67.1 °F 30 in SSO 2.9 mph 6.9 mph 64.6% 0 in
13:14 80.1 °F 67.1 °F 30 in SO 2.9 mph 7 mph 64.9% 0 in
13:19 80.1 °F 67.3 °F 30 in SSE 2.9 mph 7 mph 64.8% 0 in
13:24 80.4 °F 67.1 °F 30 in SE 3.1 mph 7 mph 64% 0 in
13:29 80.8 °F 67.5 °F 30 in SO 3 mph 5 mph 64% 0 in
13:34 81.3 °F 67.5 °F 30 in SE 2.9 mph 5 mph 63.1% 0 in
13:39 81.9 °F 67.6 °F 30 in North 2.7 mph 5 mph 62% 0 in
13:44 82.4 °F 67.8 °F 30 in SSE 2 mph 5.9 mph 61.5% 0 in
13:49 82.8 °F 67.8 °F 30 in Este 2.3 mph 7.4 mph 60.9% 0 in
13:54 82.4 °F 67.1 °F 30 in ESE 3.1 mph 7 mph 60% 0 in
13:59 82.4 °F 67.3 °F 30 in ESE 3.1 mph 6 mph 60.3% 0 in
14:04 82.8 °F 67.3 °F 30 in ESE 3.1 mph 5.4 mph 59.8% 0 in
14:09 83.1 °F 67.3 °F 30 in Este 3.1 mph 6.9 mph 59% 0 in
14:14 83.1 °F 67.1 °F 30 in Este 3.1 mph 7.4 mph 58.5% 0 in
14:19 82.9 °F 66.9 °F 30 in ENE 3.3 mph 7 mph 58.3% 0 in
14:24 83.3 °F 67.3 °F 30 in NNE 4 mph 6.4 mph 58.8% 0 in
14:29 83.7 °F 66.9 °F 30 in ESE 3.9 mph 7.4 mph 57.3% 0 in
14:34 83.8 °F 67.1 °F 30 in NE 3.6 mph 8.5 mph 57% 0 in
14:39 84.2 °F 67.1 °F 30 in Este 3.6 mph 9.7 mph 56.7% 0 in
14:44 84.6 °F 66.9 °F 30 in ESE 3.6 mph 10 mph 55.9% 0 in
14:49 84.7 °F 66.9 °F 30 in OSO 3.4 mph 5.2 mph 55.2% 0 in
14:54 84.9 °F 67.1 °F 30 in ENE 2.9 mph 5.4 mph 55.1% 0 in
14:59 85.5 °F 66.9 °F 30 in ENE 2.7 mph 6 mph 54.1% 0 in
15:04 85.6 °F 66.9 °F 30 in ENE 2.4 mph 6 mph 53.5% 0 in
15:09 86.2 °F 67.1 °F 30 in SE 2.5 mph 6 mph 52.9% 0 in
15:14 86.4 °F 66.9 °F 30 in ESE 2.9 mph 6 mph 52.4% 0 in
15:19 86.4 °F 66.9 °F 30 in ESE 3 mph 6.2 mph 52.3% 0 in
15:24 86.4 °F 66.7 °F 30 in SSE 3.6 mph 6 mph 52% 0 in
15:29 86.5 °F 66.7 °F 30 in Este 3.5 mph 6 mph 51.8% 0 in
15:34 86.9 °F 66.7 °F 30 in NE 3.1 mph 5 mph 51.4% 0 in
15:39 87.4 °F 66.7 °F 30 in Sur 2.8 mph 5.9 mph 50.6% 0 in
15:44 88 °F 66.2 °F 30 in Sur 2 mph 8.5 mph 48.6% 0 in
15:49 87.8 °F 67.1 °F 30 in ESE 2.9 mph 11.5 mph 50.3% 0 in
15:54 87.4 °F 67.5 °F 30 in ESE 5.4 mph 12.7 mph 51.4% 0 in
15:59 87.1 °F 67.1 °F 30 in ESE 5.8 mph 13 mph 51.6% 0 in
16:04 86.9 °F 66.9 °F 30 in ESE 6.9 mph 12 mph 51.4% 0 in
16:09 87.1 °F 66.7 °F 30 in ESE 6.6 mph 12 mph 51.1% 0 in
16:14 87.1 °F 66.9 °F 30 in ESE 5.9 mph 11 mph 51.2% 0 in
16:19 87.1 °F 66.6 °F 30 in ESE 6 mph 10.4 mph 50.5% 0 in
16:24 87.1 °F 66.7 °F 30 in Este 6.2 mph 10 mph 50.8% 0 in
16:29 87.4 °F 66.7 °F 30 in Este 6 mph 10.7 mph 50.4% 0 in
16:34 87.3 °F 66.9 °F 30 in Este 5.2 mph 11 mph 50.9% 0 in
16:39 87.4 °F 67.1 °F 29.9 in SE 5.6 mph 11.5 mph 51% 0 in
16:44 87.4 °F 67.1 °F 29.9 in ESE 6.9 mph 12.7 mph 50.9% 0 in
16:49 87.4 °F 67.1 °F 29.9 in ESE 7 mph 13 mph 51% 0 in
16:54 87.4 °F 67.1 °F 29.9 in ESE 7.4 mph 13 mph 51% 0 in
16:59 87.4 °F 66.9 °F 29.9 in ESE 7.3 mph 13 mph 50.8% 0 in
17:04 87.3 °F 66.9 °F 29.9 in Este 6.9 mph 11 mph 50.9% 0 in
17:09 87.3 °F 66.9 °F 29.9 in ESE 6.9 mph 10 mph 51.1% 0 in
17:14 87.4 °F 67.1 °F 29.9 in ESE 6.9 mph 10 mph 50.9% 0 in
17:19 87.4 °F 66.6 °F 29.9 in ESE 6.9 mph 12.7 mph 50% 0 in
17:24 87.4 °F 66.4 °F 29.9 in ESE 6.9 mph 13 mph 50% 0 in
17:29 87.3 °F 66.4 °F 29.9 in ESE 7.1 mph 13 mph 50% 0 in
17:34 87.3 °F 66 °F 29.9 in ESE 7.6 mph 12 mph 49.4% 0 in
17:39 87.3 °F 66.2 °F 29.9 in ESE 7.6 mph 12 mph 49.7% 0 in
17:44 87.4 °F 66.2 °F 29.9 in ESE 7.6 mph 12 mph 49.4% 0 in
17:49 87.4 °F 66 °F 29.9 in ESE 7.6 mph 12.7 mph 49.1% 0 in
17:54 87.3 °F 66.2 °F 29.9 in ESE 7.4 mph 13 mph 49.8% 0 in
17:59 87.1 °F 66.2 °F 29.9 in ESE 7.5 mph 12 mph 50.1% 0 in
18:04 86.9 °F 66.2 °F 29.9 in ESE 7.6 mph 15 mph 50.2% 0 in
18:09 86.9 °F 66.4 °F 29.9 in ESE 7.6 mph 15 mph 50.5% 0 in
18:14 87.1 °F 66.2 °F 29.9 in ESE 7.4 mph 11.8 mph 50% 0 in
18:19 86.7 °F 66.2 °F 29.9 in ESE 7.5 mph 12 mph 50.4% 0 in
18:24 86.5 °F 66.4 °F 29.9 in ESE 7.6 mph 11.5 mph 51% 0 in
18:29 86.5 °F 66.4 °F 29.9 in ESE 7.6 mph 12 mph 51% 0 in
18:34 86.5 °F 66.2 °F 29.9 in ESE 7.4 mph 11 mph 51% 0 in
18:39 86.4 °F 66 °F 29.9 in ESE 7.1 mph 10.4 mph 51% 0 in
18:44 86.4 °F 66.6 °F 29.9 in ESE 6.4 mph 10 mph 51.8% 0 in
18:49 86.2 °F 66.6 °F 29.9 in ESE 6.3 mph 9.2 mph 52% 0 in
18:54 86 °F 66.7 °F 29.9 in SE 5.9 mph 10 mph 52.6% 0 in
18:59 85.8 °F 66.7 °F 29.9 in SSE 5.8 mph 11.5 mph 52.9% 0 in
19:04 85.6 °F 66.7 °F 29.9 in SSE 5.4 mph 12 mph 53.3% 0 in
19:09 85.6 °F 67.6 °F 29.9 in SSO 5.2 mph 8 mph 54.9% 0 in
19:14 85.8 °F 68.2 °F 29.9 in SSO 4.3 mph 8.5 mph 56% 0 in
19:19 85.5 °F 68 °F 29.9 in SSO 4.4 mph 9 mph 56% 0 in
19:24 85.1 °F 68 °F 29.9 in SO 4.7 mph 9.2 mph 56.5% 0 in
19:29 84.7 °F 67.8 °F 29.9 in SO 4.6 mph 9 mph 57% 0 in
19:34 84.6 °F 68 °F 29.9 in SO 4.3 mph 7 mph 57.8% 0 in
19:39 84.2 °F 68 °F 29.9 in SO 4.2 mph 8.1 mph 58.4% 0 in
19:44 83.8 °F 68.2 °F 29.9 in SO 4 mph 8 mph 59.4% 0 in
19:49 83.7 °F 68.2 °F 29.9 in SO 3.8 mph 6 mph 60% 0 in
19:54 83.3 °F 68.2 °F 29.9 in SO 3.1 mph 7.4 mph 60.2% 0 in
19:59 82.9 °F 68.2 °F 29.9 in SO 3.2 mph 7 mph 61% 0 in
20:04 82.8 °F 68.4 °F 29.9 in OSO 3.6 mph 6 mph 61.9% 0 in
20:09 82.6 °F 68.2 °F 29.9 in SO 3.2 mph 5 mph 62% 0 in
20:14 82.4 °F 68.2 °F 29.9 in SO 2 mph 4.6 mph 62% 0 in
20:19 82.2 °F 68 °F 29.9 in SSO 2 mph 5.9 mph 62.3% 0 in
20:24 81.9 °F 68.2 °F 29.9 in SSO 2 mph 6.4 mph 63.3% 0 in
20:29 81.5 °F 68.2 °F 29.9 in SSO 2.5 mph 7.4 mph 64.3% 0 in
20:34 81.1 °F 68.4 °F 29.9 in SSO 4.3 mph 7 mph 65% 0 in
20:39 81 °F 68.4 °F 29.9 in SO 4.2 mph 6.9 mph 65.8% 0 in
20:44 80.8 °F 68.4 °F 29.9 in OSO 4 mph 7 mph 66% 0 in
20:49 80.6 °F 68.4 °F 30 in SO 3.9 mph 6 mph 66% 0 in
20:54 80.4 °F 68.4 °F 30 in SO 3.6 mph 5 mph 66.6% 0 in
20:59 80.4 °F 68.5 °F 30 in SO 3.2 mph 4.7 mph 67% 0 in
21:04 80.2 °F 68.4 °F 30 in SO 2.4 mph 5 mph 67% 0 in
21:09 80.2 °F 68.2 °F 30 in SO 2.2 mph 5 mph 67% 0 in
21:14 80.1 °F 68.2 °F 30 in SO 1.8 mph 2.3 mph 67% 0 in
21:19 80.1 °F 68.4 °F 30 in SO 1.4 mph 2 mph 67.8% 0 in
21:24 79.9 °F 68.4 °F 30 in Calm   4.6 mph 67.8% 0 in
21:29 79.5 °F 68.7 °F 30 in NNO 0.4 mph 5 mph 69.4% 0 in
21:34 79.3 °F 69.1 °F 30 in North 1.8 mph 4 mph 71% 0 in
21:39 79.2 °F 69.6 °F 30 in NNE 1.4 mph 3.5 mph 72.4% 0 in
21:44 79 °F 69.6 °F 30 in Calm   2.3 mph 73% 0 in
21:49 78.8 °F 69.8 °F 30 in Oeste 0.3 mph 2.9 mph 73.9% 0 in
21:54 78.4 °F 69.8 °F 30 in Oeste 1.4 mph 3 mph 74.7% 0 in
21:59 78.3 °F 69.8 °F 30 in Oeste 1.5 mph 3.5 mph 75.4% 0 in
22:04 78.1 °F 69.8 °F 30 in NNO 1.8 mph 4.6 mph 76% 0 in
22:09 77.7 °F 70 °F 30 in NNO 1.8 mph 5 mph 77% 0 in
22:14 77.5 °F 70 °F 30 in North 1.8 mph 4.6 mph 77.4% 0 in
22:19 77 °F 68.7 °F 30 in ENE 1.9 mph 5.2 mph 75.5% 0 in
22:24 76.5 °F 68.2 °F 30 in Este 2 mph 5 mph 75.5% 0 in
22:29 76.1 °F 68 °F 30 in ESE 2.1 mph 5 mph 76% 0 in
22:34 75.9 °F 67.8 °F 30 in SE 2.4 mph 5 mph 76.1% 0 in
22:39 75.9 °F 68.2 °F 30 in NO 2.2 mph 4.6 mph 77% 0 in
22:44 75.7 °F 68.2 °F 30 in NO 1.8 mph 5 mph 77.4% 0 in
22:49 75.7 °F 68.5 °F 30 in NNO 1.8 mph 3.6 mph 78.5% 0 in
22:54 75.6 °F 68.5 °F 30 in North 1.8 mph 4 mph 79% 0 in
22:59 75.6 °F 68.9 °F 30 in North 1.7 mph 3.6 mph 80.1% 0 in
23:04 75.4 °F 69.1 °F 30 in NNO 1.4 mph 4 mph 81% 0 in
23:09 75.4 °F 69.1 °F 30 in NNO 1.4 mph 3.1 mph 81% 0 in
23:14 75.4 °F 69.4 °F 30 in NNO 1.4 mph 4.3 mph 81.8% 0 in
23:19 75.4 °F 69.4 °F 30 in NO 1.6 mph 5 mph 82% 0 in
23:24 75 °F 69.3 °F 30 in NO 2 mph 5 mph 82% 0 in
23:29 75 °F 69.4 °F 30 in NO 1.9 mph 3 mph 82.9% 0 in
23:34 74.8 °F 69.4 °F 30 in NO 1.8 mph 3 mph 83% 0 in
23:39 74.8 °F 69.3 °F 30 in NO 1.7 mph 3.6 mph 83% 0 in
23:44 74.7 °F 69.4 °F 30 in NO 1.4 mph 4 mph 83.9% 0 in
23:49 74.7 °F 69.4 °F 30 in NO 1.4 mph 3 mph 84% 0 in
23:54 74.5 °F 69.3 °F 30 in NO 1.4 mph 3.5 mph 84% 0 in
23:59 74.1 °F 69.1 °F 30 in NO 1.5 mph 3 mph 84% 0 in
Murcia-Puente Tocinos, España
Compliments of Weather Underground - 3 mb

La estación de MeteoMurcia.com, publica sus datos en los siguientes proyectos:

Weather Underground PWS IMURCIAP2 Meteoclimatic www.awekas.at

W3Counter
Web Analytics